sensor_id;sensor_type;location;lat;lon;timestamp;P1;durP1;ratioP1;P2;durP2;ratioP2
76818;SDS011;65772;51.096;17.006;2023-05-10T00:01:07;7.60;;;4.00;;
76818;SDS011;65772;51.096;17.006;2023-05-10T00:03:38;9.30;;;4.30;;
76818;SDS011;65772;51.096;17.006;2023-05-10T00:06:09;8.10;;;4.30;;
76818;SDS011;65772;51.096;17.006;2023-05-10T00:08:39;7.60;;;4.50;;
76818;SDS011;65772;51.096;17.006;2023-05-10T00:11:10;7.10;;;3.90;;
76818;SDS011;65772;51.096;17.006;2023-05-10T00:13:41;7.00;;;4.10;;
76818;SDS011;65772;51.096;17.006;2023-05-10T00:16:11;11.00;;;4.50;;
76818;SDS011;65772;51.096;17.006;2023-05-10T00:18:42;9.50;;;4.60;;
76818;SDS011;65772;51.096;17.006;2023-05-10T00:21:13;8.60;;;4.20;;
76818;SDS011;65772;51.096;17.006;2023-05-10T00:23:43;9.40;;;4.60;;
76818;SDS011;65772;51.096;17.006;2023-05-10T00:26:14;7.30;;;4.20;;
76818;SDS011;65772;51.096;17.006;2023-05-10T00:28:45;7.70;;;4.70;;
76818;SDS011;65772;51.096;17.006;2023-05-10T00:31:16;7.70;;;4.20;;
76818;SDS011;65772;51.096;17.006;2023-05-10T00:33:46;9.00;;;4.50;;
76818;SDS011;65772;51.096;17.006;2023-05-10T00:36:17;8.20;;;4.60;;
76818;SDS011;65772;51.096;17.006;2023-05-10T00:38:48;11.60;;;5.30;;
76818;SDS011;65772;51.096;17.006;2023-05-10T00:41:19;8.80;;;3.90;;
76818;SDS011;65772;51.096;17.006;2023-05-10T00:43:50;10.20;;;4.40;;
76818;SDS011;65772;51.096;17.006;2023-05-10T00:46:20;11.10;;;4.70;;
76818;SDS011;65772;51.096;17.006;2023-05-10T00:48:52;8.90;;;4.30;;
76818;SDS011;65772;51.096;17.006;2023-05-10T00:51:23;9.10;;;5.10;;
76818;SDS011;65772;51.096;17.006;2023-05-10T00:53:54;8.40;;;4.50;;
76818;SDS011;65772;51.096;17.006;2023-05-10T00:56:25;7.80;;;4.10;;
76818;SDS011;65772;51.096;17.006;2023-05-10T00:58:57;9.40;;;4.80;;
76818;SDS011;65772;51.096;17.006;2023-05-10T01:01:28;7.10;;;4.40;;
76818;SDS011;65772;51.096;17.006;2023-05-10T01:03:59;12.10;;;5.50;;
76818;SDS011;65772;51.096;17.006;2023-05-10T01:06:30;8.60;;;4.70;;
76818;SDS011;65772;51.096;17.006;2023-05-10T01:09:01;10.00;;;4.40;;
76818;SDS011;65772;51.096;17.006;2023-05-10T01:11:31;7.10;;;4.30;;
76818;SDS011;65772;51.096;17.006;2023-05-10T01:14:03;8.50;;;5.00;;
76818;SDS011;65772;51.096;17.006;2023-05-10T01:16:36;9.90;;;4.80;;
76818;SDS011;65772;51.096;17.006;2023-05-10T01:19:09;8.00;;;4.80;;
76818;SDS011;65772;51.096;17.006;2023-05-10T01:21:48;8.80;;;4.80;;
76818;SDS011;65772;51.096;17.006;2023-05-10T01:24:34;10.90;;;5.80;;
76818;SDS011;65772;51.096;17.006;2023-05-10T01:27:23;8.50;;;4.40;;
76818;SDS011;65772;51.096;17.006;2023-05-10T01:30:11;8.10;;;5.00;;
76818;SDS011;65772;51.096;17.006;2023-05-10T01:33:00;8.80;;;4.80;;
76818;SDS011;65772;51.096;17.006;2023-05-10T01:35:40;8.50;;;5.30;;
76818;SDS011;65772;51.096;17.006;2023-05-10T01:38:17;9.50;;;4.90;;
76818;SDS011;65772;51.096;17.006;2023-05-10T01:40:54;8.20;;;4.50;;
76818;SDS011;65772;51.096;17.006;2023-05-10T01:43:32;9.60;;;4.90;;
76818;SDS011;65772;51.096;17.006;2023-05-10T01:46:10;10.70;;;5.30;;
76818;SDS011;65772;51.096;17.006;2023-05-10T01:48:47;8.60;;;4.40;;
76818;SDS011;65772;51.096;17.006;2023-05-10T01:51:23;8.90;;;4.90;;
76818;SDS011;65772;51.096;17.006;2023-05-10T01:54:00;11.40;;;5.30;;
76818;SDS011;65772;51.096;17.006;2023-05-10T01:56:33;8.00;;;4.90;;
76818;SDS011;65772;51.096;17.006;2023-05-10T01:59:08;8.40;;;4.90;;
76818;SDS011;65772;51.096;17.006;2023-05-10T02:01:44;9.40;;;4.90;;
76818;SDS011;65772;51.096;17.006;2023-05-10T02:04:17;8.50;;;4.90;;
76818;SDS011;65772;51.096;17.006;2023-05-10T02:06:50;9.10;;;5.50;;
76818;SDS011;65772;51.096;17.006;2023-05-10T02:09:22;10.00;;;4.80;;
76818;SDS011;65772;51.096;17.006;2023-05-10T02:11:56;8.50;;;5.20;;
76818;SDS011;65772;51.096;17.006;2023-05-10T02:16:57;9.40;;;4.90;;
76818;SDS011;65772;51.096;17.006;2023-05-10T02:19:30;10.60;;;4.80;;
76818;SDS011;65772;51.096;17.006;2023-05-10T02:22:03;13.30;;;5.00;;
76818;SDS011;65772;51.096;17.006;2023-05-10T02:24:35;9.70;;;5.10;;
76818;SDS011;65772;51.096;17.006;2023-05-10T02:27:07;10.00;;;5.00;;
76818;SDS011;65772;51.096;17.006;2023-05-10T02:29:39;8.50;;;5.10;;
76818;SDS011;65772;51.096;17.006;2023-05-10T02:32:11;7.70;;;4.60;;
76818;SDS011;65772;51.096;17.006;2023-05-10T02:34:43;9.50;;;5.10;;
76818;SDS011;65772;51.096;17.006;2023-05-10T02:37:19;10.10;;;5.40;;
76818;SDS011;65772;51.096;17.006;2023-05-10T02:39:52;9.90;;;5.10;;
76818;SDS011;65772;51.096;17.006;2023-05-10T02:42:26;8.70;;;4.60;;
76818;SDS011;65772;51.096;17.006;2023-05-10T02:44:59;8.00;;;4.60;;
76818;SDS011;65772;51.096;17.006;2023-05-10T02:47:32;10.00;;;5.90;;
76818;SDS011;65772;51.096;17.006;2023-05-10T02:50:04;9.80;;;5.50;;
76818;SDS011;65772;51.096;17.006;2023-05-10T02:52:38;8.10;;;4.70;;
76818;SDS011;65772;51.096;17.006;2023-05-10T02:55:14;11.30;;;5.00;;
76818;SDS011;65772;51.096;17.006;2023-05-10T02:57:48;8.20;;;4.30;;
76818;SDS011;65772;51.096;17.006;2023-05-10T03:02:54;9.30;;;5.10;;
76818;SDS011;65772;51.096;17.006;2023-05-10T03:05:25;9.30;;;4.60;;
76818;SDS011;65772;51.096;17.006;2023-05-10T03:07:56;8.40;;;4.70;;
76818;SDS011;65772;51.096;17.006;2023-05-10T03:10:28;11.60;;;4.70;;
76818;SDS011;65772;51.096;17.006;2023-05-10T03:13:07;12.50;;;5.30;;
76818;SDS011;65772;51.096;17.006;2023-05-10T03:15:47;10.10;;;5.30;;
76818;SDS011;65772;51.096;17.006;2023-05-10T03:18:29;9.30;;;4.70;;
76818;SDS011;65772;51.096;17.006;2023-05-10T03:21:04;8.20;;;4.80;;
76818;SDS011;65772;51.096;17.006;2023-05-10T03:23:42;9.30;;;5.50;;
76818;SDS011;65772;51.096;17.006;2023-05-10T03:26:17;14.00;;;5.40;;
76818;SDS011;65772;51.096;17.006;2023-05-10T03:28:57;9.80;;;5.10;;
76818;SDS011;65772;51.096;17.006;2023-05-10T03:31:29;10.00;;;5.10;;
76818;SDS011;65772;51.096;17.006;2023-05-10T03:34:00;9.70;;;5.50;;
76818;SDS011;65772;51.096;17.006;2023-05-10T03:36:31;9.40;;;4.90;;
76818;SDS011;65772;51.096;17.006;2023-05-10T03:39:02;9.80;;;5.00;;
76818;SDS011;65772;51.096;17.006;2023-05-10T03:41:32;9.50;;;5.60;;
76818;SDS011;65772;51.096;17.006;2023-05-10T03:44:03;11.40;;;5.20;;
76818;SDS011;65772;51.096;17.006;2023-05-10T03:46:34;9.50;;;5.10;;
76818;SDS011;65772;51.096;17.006;2023-05-10T03:49:04;9.00;;;5.60;;
76818;SDS011;65772;51.096;17.006;2023-05-10T03:51:36;10.90;;;5.50;;
76818;SDS011;65772;51.096;17.006;2023-05-10T03:54:07;12.60;;;5.10;;
76818;SDS011;65772;51.096;17.006;2023-05-10T03:56:38;11.50;;;5.60;;
76818;SDS011;65772;51.096;17.006;2023-05-10T03:59:08;10.40;;;5.30;;
76818;SDS011;65772;51.096;17.006;2023-05-10T04:01:39;8.90;;;4.90;;
76818;SDS011;65772;51.096;17.006;2023-05-10T04:04:09;11.30;;;5.20;;
76818;SDS011;65772;51.096;17.006;2023-05-10T04:06:40;12.00;;;5.40;;
76818;SDS011;65772;51.096;17.006;2023-05-10T04:09:11;10.80;;;6.00;;
76818;SDS011;65772;51.096;17.006;2023-05-10T04:11:41;12.20;;;5.20;;
76818;SDS011;65772;51.096;17.006;2023-05-10T04:14:12;9.30;;;5.00;;
76818;SDS011;65772;51.096;17.006;2023-05-10T04:16:42;8.60;;;4.70;;
76818;SDS011;65772;51.096;17.006;2023-05-10T04:19:13;8.20;;;4.90;;
76818;SDS011;65772;51.096;17.006;2023-05-10T04:21:43;10.10;;;5.20;;
76818;SDS011;65772;51.096;17.006;2023-05-10T04:24:14;9.30;;;5.30;;
76818;SDS011;65772;51.096;17.006;2023-05-10T04:26:44;18.20;;;5.30;;
76818;SDS011;65772;51.096;17.006;2023-05-10T04:29:15;8.30;;;5.10;;
76818;SDS011;65772;51.096;17.006;2023-05-10T04:31:45;12.00;;;5.60;;
76818;SDS011;65772;51.096;17.006;2023-05-10T04:34:16;12.80;;;5.50;;
76818;SDS011;65772;51.096;17.006;2023-05-10T04:36:49;10.70;;;5.80;;
76818;SDS011;65772;51.096;17.006;2023-05-10T04:39:19;10.00;;;5.20;;
76818;SDS011;65772;51.096;17.006;2023-05-10T04:41:53;10.30;;;5.00;;
76818;SDS011;65772;51.096;17.006;2023-05-10T04:44:23;10.70;;;5.10;;
76818;SDS011;65772;51.096;17.006;2023-05-10T04:46:54;9.70;;;4.90;;
76818;SDS011;65772;51.096;17.006;2023-05-10T04:49:24;10.00;;;5.20;;
76818;SDS011;65772;51.096;17.006;2023-05-10T04:51:55;11.60;;;5.60;;
76818;SDS011;65772;51.096;17.006;2023-05-10T04:54:25;10.70;;;5.50;;
76818;SDS011;65772;51.096;17.006;2023-05-10T04:56:56;9.30;;;5.10;;
76818;SDS011;65772;51.096;17.006;2023-05-10T04:59:26;9.70;;;5.30;;
76818;SDS011;65772;51.096;17.006;2023-05-10T05:01:57;9.90;;;5.30;;
76818;SDS011;65772;51.096;17.006;2023-05-10T05:04:27;7.70;;;4.60;;
76818;SDS011;65772;51.096;17.006;2023-05-10T05:06:58;9.60;;;5.50;;
76818;SDS011;65772;51.096;17.006;2023-05-10T05:09:29;9.40;;;5.10;;
76818;SDS011;65772;51.096;17.006;2023-05-10T05:11:59;9.00;;;5.30;;
76818;SDS011;65772;51.096;17.006;2023-05-10T05:14:30;8.80;;;4.90;;
76818;SDS011;65772;51.096;17.006;2023-05-10T05:17:01;10.20;;;5.30;;
76818;SDS011;65772;51.096;17.006;2023-05-10T05:19:32;10.90;;;5.10;;
76818;SDS011;65772;51.096;17.006;2023-05-10T05:22:03;11.50;;;5.30;;
76818;SDS011;65772;51.096;17.006;2023-05-10T05:27:06;11.00;;;4.60;;
76818;SDS011;65772;51.096;17.006;2023-05-10T05:29:36;10.50;;;4.60;;
76818;SDS011;65772;51.096;17.006;2023-05-10T05:32:07;9.00;;;4.40;;
76818;SDS011;65772;51.096;17.006;2023-05-10T05:34:38;12.50;;;5.10;;
76818;SDS011;65772;51.096;17.006;2023-05-10T05:37:13;9.50;;;5.00;;
76818;SDS011;65772;51.096;17.006;2023-05-10T05:39:44;9.70;;;4.80;;
76818;SDS011;65772;51.096;17.006;2023-05-10T05:42:14;8.80;;;5.00;;
76818;SDS011;65772;51.096;17.006;2023-05-10T05:44:46;10.90;;;5.70;;
76818;SDS011;65772;51.096;17.006;2023-05-10T05:47:17;9.80;;;5.30;;
76818;SDS011;65772;51.096;17.006;2023-05-10T05:49:47;10.50;;;4.80;;
76818;SDS011;65772;51.096;17.006;2023-05-10T05:52:17;10.50;;;4.70;;
76818;SDS011;65772;51.096;17.006;2023-05-10T05:54:49;8.90;;;5.00;;
76818;SDS011;65772;51.096;17.006;2023-05-10T05:57:19;9.90;;;4.90;;
76818;SDS011;65772;51.096;17.006;2023-05-10T05:59:50;9.70;;;4.80;;
76818;SDS011;65772;51.096;17.006;2023-05-10T06:02:21;8.40;;;4.80;;
76818;SDS011;65772;51.096;17.006;2023-05-10T06:04:52;9.80;;;5.00;;
76818;SDS011;65772;51.096;17.006;2023-05-10T06:07:22;9.00;;;4.80;;
76818;SDS011;65772;51.096;17.006;2023-05-10T06:09:53;8.40;;;4.40;;
76818;SDS011;65772;51.096;17.006;2023-05-10T06:12:23;9.80;;;4.80;;
76818;SDS011;65772;51.096;17.006;2023-05-10T06:14:54;10.70;;;5.10;;
76818;SDS011;65772;51.096;17.006;2023-05-10T06:17:24;9.40;;;4.80;;
76818;SDS011;65772;51.096;17.006;2023-05-10T06:19:55;8.50;;;4.60;;
76818;SDS011;65772;51.096;17.006;2023-05-10T06:22:25;9.10;;;4.50;;
76818;SDS011;65772;51.096;17.006;2023-05-10T06:24:56;8.30;;;4.30;;
76818;SDS011;65772;51.096;17.006;2023-05-10T06:27:26;9.60;;;4.60;;
76818;SDS011;65772;51.096;17.006;2023-05-10T06:29:57;11.00;;;4.60;;
76818;SDS011;65772;51.096;17.006;2023-05-10T06:32:39;11.70;;;4.60;;
76818;SDS011;65772;51.096;17.006;2023-05-10T06:35:11;10.90;;;4.70;;
76818;SDS011;65772;51.096;17.006;2023-05-10T06:37:42;10.90;;;4.60;;
76818;SDS011;65772;51.096;17.006;2023-05-10T06:40:14;11.40;;;4.10;;
76818;SDS011;65772;51.096;17.006;2023-05-10T06:42:45;7.10;;;3.80;;
76818;SDS011;65772;51.096;17.006;2023-05-10T06:47:47;8.80;;;3.60;;
76818;SDS011;65772;51.096;17.006;2023-05-10T06:50:18;8.10;;;4.30;;
76818;SDS011;65772;51.096;17.006;2023-05-10T06:52:48;8.90;;;4.20;;
76818;SDS011;65772;51.096;17.006;2023-05-10T06:55:20;7.70;;;4.30;;
76818;SDS011;65772;51.096;17.006;2023-05-10T06:57:51;9.30;;;4.30;;
76818;SDS011;65772;51.096;17.006;2023-05-10T07:00:21;8.00;;;4.10;;
76818;SDS011;65772;51.096;17.006;2023-05-10T07:02:53;7.60;;;3.90;;
76818;SDS011;65772;51.096;17.006;2023-05-10T07:05:24;7.30;;;4.10;;
76818;SDS011;65772;51.096;17.006;2023-05-10T07:07:55;7.40;;;3.90;;
76818;SDS011;65772;51.096;17.006;2023-05-10T07:10:26;8.00;;;3.90;;
76818;SDS011;65772;51.096;17.006;2023-05-10T07:12:57;6.70;;;3.80;;
76818;SDS011;65772;51.096;17.006;2023-05-10T07:15:29;8.10;;;4.00;;
76818;SDS011;65772;51.096;17.006;2023-05-10T07:17:59;7.60;;;4.30;;
76818;SDS011;65772;51.096;17.006;2023-05-10T07:20:32;7.30;;;4.00;;
76818;SDS011;65772;51.096;17.006;2023-05-10T07:23:02;7.40;;;4.20;;
76818;SDS011;65772;51.096;17.006;2023-05-10T07:25:33;7.30;;;3.60;;
76818;SDS011;65772;51.096;17.006;2023-05-10T07:28:03;7.60;;;3.70;;
76818;SDS011;65772;51.096;17.006;2023-05-10T07:30:34;8.40;;;4.10;;
76818;SDS011;65772;51.096;17.006;2023-05-10T07:33:05;7.10;;;3.50;;
76818;SDS011;65772;51.096;17.006;2023-05-10T07:35:36;6.60;;;4.00;;
76818;SDS011;65772;51.096;17.006;2023-05-10T07:38:07;6.20;;;3.40;;
76818;SDS011;65772;51.096;17.006;2023-05-10T07:40:38;7.10;;;3.80;;
76818;SDS011;65772;51.096;17.006;2023-05-10T07:43:09;6.00;;;3.60;;
76818;SDS011;65772;51.096;17.006;2023-05-10T07:45:39;7.50;;;3.70;;
76818;SDS011;65772;51.096;17.006;2023-05-10T07:48:10;6.40;;;3.20;;
76818;SDS011;65772;51.096;17.006;2023-05-10T07:50:40;8.00;;;3.70;;
76818;SDS011;65772;51.096;17.006;2023-05-10T07:53:11;8.60;;;3.50;;
76818;SDS011;65772;51.096;17.006;2023-05-10T07:55:42;6.80;;;3.80;;
76818;SDS011;65772;51.096;17.006;2023-05-10T07:58:12;6.10;;;3.60;;
76818;SDS011;65772;51.096;17.006;2023-05-10T08:00:43;5.30;;;3.40;;
76818;SDS011;65772;51.096;17.006;2023-05-10T08:03:13;7.10;;;3.70;;
76818;SDS011;65772;51.096;17.006;2023-05-10T08:05:44;9.30;;;3.10;;
76818;SDS011;65772;51.096;17.006;2023-05-10T08:08:14;5.50;;;3.10;;
76818;SDS011;65772;51.096;17.006;2023-05-10T08:10:45;6.90;;;3.30;;
76818;SDS011;65772;51.096;17.006;2023-05-10T08:13:16;8.10;;;3.10;;
76818;SDS011;65772;51.096;17.006;2023-05-10T08:15:46;5.90;;;3.20;;
76818;SDS011;65772;51.096;17.006;2023-05-10T08:18:19;6.00;;;3.00;;
76818;SDS011;65772;51.096;17.006;2023-05-10T08:20:50;5.90;;;3.40;;
76818;SDS011;65772;51.096;17.006;2023-05-10T08:23:20;5.20;;;3.30;;
76818;SDS011;65772;51.096;17.006;2023-05-10T08:25:51;7.10;;;3.30;;
76818;SDS011;65772;51.096;17.006;2023-05-10T08:28:21;8.10;;;3.10;;
76818;SDS011;65772;51.096;17.006;2023-05-10T08:30:52;4.90;;;2.70;;
76818;SDS011;65772;51.096;17.006;2023-05-10T08:33:23;5.90;;;3.20;;
76818;SDS011;65772;51.096;17.006;2023-05-10T08:35:53;5.30;;;3.20;;
76818;SDS011;65772;51.096;17.006;2023-05-10T08:38:24;5.60;;;2.90;;
76818;SDS011;65772;51.096;17.006;2023-05-10T08:40:55;5.80;;;3.30;;
76818;SDS011;65772;51.096;17.006;2023-05-10T08:43:27;5.60;;;3.30;;
76818;SDS011;65772;51.096;17.006;2023-05-10T08:45:59;7.60;;;3.20;;
76818;SDS011;65772;51.096;17.006;2023-05-10T08:48:32;5.80;;;3.40;;
76818;SDS011;65772;51.096;17.006;2023-05-10T08:51:05;5.00;;;3.20;;
76818;SDS011;65772;51.096;17.006;2023-05-10T08:56:07;6.50;;;3.10;;
76818;SDS011;65772;51.096;17.006;2023-05-10T08:58:37;7.70;;;2.80;;
76818;SDS011;65772;51.096;17.006;2023-05-10T09:01:08;4.70;;;2.60;;
76818;SDS011;65772;51.096;17.006;2023-05-10T09:03:39;5.40;;;2.80;;
76818;SDS011;65772;51.096;17.006;2023-05-10T09:06:10;5.70;;;3.20;;
76818;SDS011;65772;51.096;17.006;2023-05-10T09:08:43;4.80;;;2.90;;
76818;SDS011;65772;51.096;17.006;2023-05-10T09:11:13;5.80;;;3.20;;
76818;SDS011;65772;51.096;17.006;2023-05-10T09:13:44;4.60;;;2.80;;
76818;SDS011;65772;51.096;17.006;2023-05-10T09:16:16;6.10;;;3.20;;
76818;SDS011;65772;51.096;17.006;2023-05-10T09:18:49;5.00;;;3.10;;
76818;SDS011;65772;51.096;17.006;2023-05-10T09:21:20;6.90;;;3.10;;
76818;SDS011;65772;51.096;17.006;2023-05-10T09:23:50;5.00;;;2.90;;
76818;SDS011;65772;51.096;17.006;2023-05-10T09:26:23;6.30;;;3.10;;
76818;SDS011;65772;51.096;17.006;2023-05-10T09:28:54;7.20;;;2.90;;
76818;SDS011;65772;51.096;17.006;2023-05-10T09:31:26;6.90;;;3.20;;
76818;SDS011;65772;51.096;17.006;2023-05-10T09:34:17;5.10;;;3.50;;
76818;SDS011;65772;51.096;17.006;2023-05-10T09:36:55;6.70;;;2.70;;
76818;SDS011;65772;51.096;17.006;2023-05-10T09:39:32;9.50;;;2.80;;
76818;SDS011;65772;51.096;17.006;2023-05-10T09:42:04;6.10;;;2.80;;
76818;SDS011;65772;51.096;17.006;2023-05-10T09:44:36;6.40;;;3.00;;
76818;SDS011;65772;51.096;17.006;2023-05-10T09:47:08;5.90;;;2.90;;
76818;SDS011;65772;51.096;17.006;2023-05-10T09:49:39;8.30;;;2.80;;
76818;SDS011;65772;51.096;17.006;2023-05-10T09:52:10;6.00;;;3.10;;
76818;SDS011;65772;51.096;17.006;2023-05-10T09:54:42;9.20;;;3.30;;
76818;SDS011;65772;51.096;17.006;2023-05-10T09:57:21;5.70;;;3.00;;
76818;SDS011;65772;51.096;17.006;2023-05-10T09:59:53;7.40;;;2.80;;
76818;SDS011;65772;51.096;17.006;2023-05-10T10:02:29;6.00;;;2.90;;
76818;SDS011;65772;51.096;17.006;2023-05-10T10:05:00;4.10;;;2.50;;
76818;SDS011;65772;51.096;17.006;2023-05-10T10:07:31;4.70;;;2.50;;
76818;SDS011;65772;51.096;17.006;2023-05-10T10:10:03;7.20;;;2.90;;
76818;SDS011;65772;51.096;17.006;2023-05-10T10:12:39;5.50;;;2.70;;
76818;SDS011;65772;51.096;17.006;2023-05-10T10:15:10;4.40;;;2.50;;
76818;SDS011;65772;51.096;17.006;2023-05-10T10:17:43;5.50;;;2.90;;
76818;SDS011;65772;51.096;17.006;2023-05-10T10:20:14;5.30;;;2.80;;
76818;SDS011;65772;51.096;17.006;2023-05-10T10:22:45;4.60;;;2.40;;
76818;SDS011;65772;51.096;17.006;2023-05-10T10:25:17;4.90;;;2.50;;
76818;SDS011;65772;51.096;17.006;2023-05-10T10:27:55;4.20;;;2.50;;
76818;SDS011;65772;51.096;17.006;2023-05-10T10:30:38;4.70;;;2.60;;
76818;SDS011;65772;51.096;17.006;2023-05-10T10:33:18;5.70;;;2.60;;
76818;SDS011;65772;51.096;17.006;2023-05-10T10:36:09;4.70;;;2.30;;
76818;SDS011;65772;51.096;17.006;2023-05-10T10:38:57;4.80;;;2.50;;
76818;SDS011;65772;51.096;17.006;2023-05-10T10:41:29;6.70;;;2.90;;
76818;SDS011;65772;51.096;17.006;2023-05-10T10:47:00;5.20;;;3.10;;
76818;SDS011;65772;51.096;17.006;2023-05-10T10:49:37;4.70;;;2.60;;
76818;SDS011;65772;51.096;17.006;2023-05-10T10:52:15;4.50;;;2.40;;
76818;SDS011;65772;51.096;17.006;2023-05-10T10:54:56;4.50;;;2.50;;
76818;SDS011;65772;51.096;17.006;2023-05-10T10:57:30;5.60;;;2.70;;
76818;SDS011;65772;51.096;17.006;2023-05-10T11:03:05;5.40;;;2.70;;
76818;SDS011;65772;51.096;17.006;2023-05-10T11:05:39;4.70;;;2.40;;
76818;SDS011;65772;51.096;17.006;2023-05-10T11:08:15;4.50;;;2.40;;
76818;SDS011;65772;51.096;17.006;2023-05-10T11:10:53;7.10;;;2.50;;
76818;SDS011;65772;51.096;17.006;2023-05-10T11:13:34;4.90;;;2.50;;
76818;SDS011;65772;51.096;17.006;2023-05-10T11:16:12;5.10;;;2.40;;
76818;SDS011;65772;51.096;17.006;2023-05-10T11:21:45;5.80;;;2.40;;
76818;SDS011;65772;51.096;17.006;2023-05-10T11:24:18;8.60;;;2.80;;
76818;SDS011;65772;51.096;17.006;2023-05-10T11:26:50;6.40;;;2.80;;
76818;SDS011;65772;51.096;17.006;2023-05-10T11:29:22;6.50;;;2.60;;
76818;SDS011;65772;51.096;17.006;2023-05-10T11:34:26;4.00;;;2.30;;
76818;SDS011;65772;51.096;17.006;2023-05-10T11:36:59;4.30;;;2.10;;
76818;SDS011;65772;51.096;17.006;2023-05-10T11:39:30;7.60;;;2.60;;
76818;SDS011;65772;51.096;17.006;2023-05-10T11:42:02;3.90;;;2.20;;
76818;SDS011;65772;51.096;17.006;2023-05-10T11:44:32;6.30;;;2.40;;
76818;SDS011;65772;51.096;17.006;2023-05-10T11:47:03;9.80;;;2.40;;
76818;SDS011;65772;51.096;17.006;2023-05-10T11:49:35;5.20;;;2.30;;
76818;SDS011;65772;51.096;17.006;2023-05-10T11:52:06;4.70;;;2.40;;
76818;SDS011;65772;51.096;17.006;2023-05-10T11:54:42;4.80;;;2.10;;
76818;SDS011;65772;51.096;17.006;2023-05-10T11:57:19;4.20;;;2.40;;
76818;SDS011;65772;51.096;17.006;2023-05-10T11:59:55;4.60;;;2.00;;
76818;SDS011;65772;51.096;17.006;2023-05-10T12:02:26;7.90;;;4.60;;
76818;SDS011;65772;51.096;17.006;2023-05-10T12:04:57;6.30;;;3.50;;
76818;SDS011;65772;51.096;17.006;2023-05-10T12:07:28;5.90;;;2.60;;
76818;SDS011;65772;51.096;17.006;2023-05-10T12:10:09;5.00;;;2.50;;
76818;SDS011;65772;51.096;17.006;2023-05-10T12:12:43;5.00;;;2.30;;
76818;SDS011;65772;51.096;17.006;2023-05-10T12:15:18;4.60;;;2.50;;
76818;SDS011;65772;51.096;17.006;2023-05-10T12:17:50;4.30;;;2.40;;
76818;SDS011;65772;51.096;17.006;2023-05-10T12:20:22;4.50;;;2.20;;
76818;SDS011;65772;51.096;17.006;2023-05-10T12:22:56;3.70;;;2.10;;
76818;SDS011;65772;51.096;17.006;2023-05-10T12:25:30;4.60;;;2.10;;
76818;SDS011;65772;51.096;17.006;2023-05-10T12:28:04;5.20;;;2.00;;
76818;SDS011;65772;51.096;17.006;2023-05-10T12:30:54;4.00;;;2.40;;
76818;SDS011;65772;51.096;17.006;2023-05-10T12:33:26;4.40;;;2.30;;
76818;SDS011;65772;51.096;17.006;2023-05-10T12:36:04;5.70;;;2.30;;
76818;SDS011;65772;51.096;17.006;2023-05-10T12:38:35;4.90;;;2.00;;
76818;SDS011;65772;51.096;17.006;2023-05-10T12:41:07;3.80;;;2.30;;
76818;SDS011;65772;51.096;17.006;2023-05-10T12:43:39;4.60;;;2.30;;
76818;SDS011;65772;51.096;17.006;2023-05-10T12:46:10;3.10;;;1.90;;
76818;SDS011;65772;51.096;17.006;2023-05-10T12:48:42;3.70;;;2.10;;
76818;SDS011;65772;51.096;17.006;2023-05-10T12:51:14;3.70;;;2.20;;
76818;SDS011;65772;51.096;17.006;2023-05-10T12:53:47;7.30;;;2.20;;
76818;SDS011;65772;51.096;17.006;2023-05-10T12:56:17;5.80;;;2.20;;
76818;SDS011;65772;51.096;17.006;2023-05-10T12:58:48;4.80;;;1.90;;
76818;SDS011;65772;51.096;17.006;2023-05-10T13:01:18;4.80;;;2.00;;
76818;SDS011;65772;51.096;17.006;2023-05-10T13:03:49;5.70;;;2.10;;
76818;SDS011;65772;51.096;17.006;2023-05-10T13:06:19;3.30;;;2.10;;
76818;SDS011;65772;51.096;17.006;2023-05-10T13:08:50;5.30;;;2.10;;
76818;SDS011;65772;51.096;17.006;2023-05-10T13:11:20;4.80;;;2.20;;
76818;SDS011;65772;51.096;17.006;2023-05-10T13:13:51;5.90;;;2.10;;
76818;SDS011;65772;51.096;17.006;2023-05-10T13:16:21;3.90;;;2.00;;
76818;SDS011;65772;51.096;17.006;2023-05-10T13:18:52;3.00;;;1.80;;
76818;SDS011;65772;51.096;17.006;2023-05-10T13:21:22;4.10;;;2.40;;
76818;SDS011;65772;51.096;17.006;2023-05-10T13:23:53;5.50;;;2.20;;
76818;SDS011;65772;51.096;17.006;2023-05-10T13:26:24;11.10;;;2.50;;
76818;SDS011;65772;51.096;17.006;2023-05-10T13:28:55;5.50;;;2.00;;
76818;SDS011;65772;51.096;17.006;2023-05-10T13:31:26;3.80;;;2.20;;
76818;SDS011;65772;51.096;17.006;2023-05-10T13:33:57;3.60;;;1.90;;
76818;SDS011;65772;51.096;17.006;2023-05-10T13:36:27;3.90;;;1.90;;
76818;SDS011;65772;51.096;17.006;2023-05-10T13:38:58;4.50;;;1.70;;
76818;SDS011;65772;51.096;17.006;2023-05-10T13:41:31;5.10;;;2.30;;
76818;SDS011;65772;51.096;17.006;2023-05-10T13:44:01;4.80;;;2.20;;
76818;SDS011;65772;51.096;17.006;2023-05-10T13:46:32;5.70;;;2.10;;
76818;SDS011;65772;51.096;17.006;2023-05-10T13:49:03;4.00;;;2.20;;
76818;SDS011;65772;51.096;17.006;2023-05-10T13:51:34;6.60;;;2.10;;
76818;SDS011;65772;51.096;17.006;2023-05-10T13:54:05;4.50;;;2.00;;
76818;SDS011;65772;51.096;17.006;2023-05-10T13:56:36;3.60;;;2.30;;
76818;SDS011;65772;51.096;17.006;2023-05-10T13:59:08;5.30;;;1.90;;
76818;SDS011;65772;51.096;17.006;2023-05-10T14:01:38;4.40;;;1.90;;
76818;SDS011;65772;51.096;17.006;2023-05-10T14:04:10;4.10;;;1.80;;
76818;SDS011;65772;51.096;17.006;2023-05-10T14:06:41;3.60;;;2.30;;
76818;SDS011;65772;51.096;17.006;2023-05-10T14:09:11;3.10;;;1.70;;
76818;SDS011;65772;51.096;17.006;2023-05-10T14:11:42;3.70;;;2.00;;
76818;SDS011;65772;51.096;17.006;2023-05-10T14:14:13;5.80;;;3.10;;
76818;SDS011;65772;51.096;17.006;2023-05-10T14:16:44;6.40;;;2.90;;
76818;SDS011;65772;51.096;17.006;2023-05-10T14:19:15;5.60;;;2.60;;
76818;SDS011;65772;51.096;17.006;2023-05-10T14:21:46;5.20;;;1.80;;
76818;SDS011;65772;51.096;17.006;2023-05-10T14:24:16;3.90;;;1.90;;
76818;SDS011;65772;51.096;17.006;2023-05-10T14:26:47;5.00;;;2.10;;
76818;SDS011;65772;51.096;17.006;2023-05-10T14:29:21;3.80;;;2.40;;
76818;SDS011;65772;51.096;17.006;2023-05-10T14:31:52;5.70;;;2.40;;
76818;SDS011;65772;51.096;17.006;2023-05-10T14:34:23;4.40;;;2.00;;
76818;SDS011;65772;51.096;17.006;2023-05-10T14:36:54;5.30;;;2.00;;
76818;SDS011;65772;51.096;17.006;2023-05-10T14:39:24;3.40;;;1.80;;
76818;SDS011;65772;51.096;17.006;2023-05-10T14:41:57;3.60;;;1.70;;
76818;SDS011;65772;51.096;17.006;2023-05-10T14:44:27;3.80;;;2.00;;
76818;SDS011;65772;51.096;17.006;2023-05-10T14:46:58;3.50;;;2.20;;
76818;SDS011;65772;51.096;17.006;2023-05-10T14:49:28;3.90;;;1.70;;
76818;SDS011;65772;51.096;17.006;2023-05-10T14:51:59;3.70;;;2.00;;
76818;SDS011;65772;51.096;17.006;2023-05-10T14:54:29;6.60;;;2.10;;
76818;SDS011;65772;51.096;17.006;2023-05-10T14:57:01;4.00;;;2.00;;
76818;SDS011;65772;51.096;17.006;2023-05-10T14:59:31;4.00;;;2.10;;
76818;SDS011;65772;51.096;17.006;2023-05-10T15:02:02;3.00;;;1.90;;
76818;SDS011;65772;51.096;17.006;2023-05-10T15:04:33;4.30;;;2.00;;
76818;SDS011;65772;51.096;17.006;2023-05-10T15:07:04;4.30;;;2.10;;
76818;SDS011;65772;51.096;17.006;2023-05-10T15:09:34;4.40;;;1.90;;
76818;SDS011;65772;51.096;17.006;2023-05-10T15:12:05;3.70;;;1.90;;
76818;SDS011;65772;51.096;17.006;2023-05-10T15:14:35;3.80;;;1.80;;
76818;SDS011;65772;51.096;17.006;2023-05-10T15:17:06;3.40;;;1.70;;
76818;SDS011;65772;51.096;17.006;2023-05-10T15:19:36;4.30;;;1.90;;
76818;SDS011;65772;51.096;17.006;2023-05-10T15:22:07;4.20;;;1.70;;
76818;SDS011;65772;51.096;17.006;2023-05-10T15:24:37;4.40;;;1.70;;
76818;SDS011;65772;51.096;17.006;2023-05-10T15:27:08;5.60;;;2.10;;